createdAt,value
2024-05-09T00:00:40.234Z,9.90
2024-05-09T00:03:09.830Z,11.30
2024-05-09T00:05:38.398Z,10.40
2024-05-09T00:08:06.437Z,9.90
2024-05-09T00:10:37.209Z,10.53
2024-05-09T00:13:07.167Z,10.17
2024-05-09T00:15:35.213Z,10.70
2024-05-09T00:18:03.308Z,10.80
2024-05-09T00:20:37.827Z,10.60
2024-05-09T00:23:08.840Z,9.70
2024-05-09T00:25:36.763Z,10.83
2024-05-09T00:28:04.009Z,11.20
2024-05-09T00:30:34.792Z,11.00
2024-05-09T00:33:05.392Z,9.80
2024-05-09T00:35:33.496Z,11.17
2024-05-09T00:38:00.856Z,11.27
2024-05-09T00:40:38.735Z,11.27
2024-05-09T00:43:08.584Z,10.60
2024-05-09T00:45:35.834Z,11.93
2024-05-09T00:48:06.741Z,10.73
2024-05-09T00:50:37.499Z,10.50
2024-05-09T00:53:06.863Z,12.20
2024-05-09T00:55:35.961Z,11.53
2024-05-09T00:58:04.524Z,12.73
2024-05-09T01:00:38.390Z,10.80
2024-05-09T01:03:08.836Z,10.40
2024-05-09T01:05:39.314Z,11.30
2024-05-09T01:08:07.363Z,12.47
2024-05-09T01:10:35.895Z,11.70
2024-05-09T01:13:04.411Z,11.00
2024-05-09T01:15:31.463Z,10.90
2024-05-09T01:18:00.984Z,10.60
2024-05-09T01:20:37.484Z,12.27
2024-05-09T01:23:09.910Z,10.40
2024-05-09T01:25:37.292Z,11.00
2024-05-09T01:28:04.560Z,12.63
2024-05-09T01:30:35.269Z,12.50
2024-05-09T01:33:06.255Z,11.60
2024-05-09T01:35:34.852Z,11.80
2024-05-09T01:38:01.950Z,11.33
2024-05-09T01:40:36.747Z,12.60
2024-05-09T01:43:06.628Z,12.50
2024-05-09T01:45:33.668Z,11.53
2024-05-09T01:48:01.029Z,10.00
2024-05-09T01:50:37.727Z,11.87
2024-05-09T01:53:09.030Z,11.10
2024-05-09T01:55:36.074Z,11.50
2024-05-09T01:58:03.090Z,11.23
2024-05-09T02:00:38.404Z,11.07
2024-05-09T02:03:15.563Z,11.20
2024-05-09T02:05:45.768Z,11.60
2024-05-09T02:08:18.276Z,12.07
2024-05-09T02:10:46.892Z,11.50
2024-05-09T02:13:14.905Z,11.20
2024-05-09T02:15:42.107Z,10.87
2024-05-09T02:18:10.262Z,11.50
2024-05-09T02:20:41.719Z,11.80
2024-05-09T02:23:09.472Z,10.37
2024-05-09T02:25:36.626Z,11.17
2024-05-09T02:28:03.669Z,10.40
2024-05-09T02:30:38.784Z,12.63
2024-05-09T02:33:10.073Z,11.10
2024-05-09T02:35:38.805Z,12.40
2024-05-09T02:38:06.596Z,14.37
2024-05-09T02:40:37.459Z,10.53
2024-05-09T02:43:12.211Z,10.60
2024-05-09T02:45:40.589Z,12.50
2024-05-09T02:48:11.200Z,11.73
2024-05-09T02:50:40.651Z,12.70
2024-05-09T02:53:09.491Z,11.50
2024-05-09T02:55:40.587Z,12.90
2024-05-09T02:58:07.858Z,11.87
2024-05-09T03:00:39.425Z,13.50
2024-05-09T03:03:10.775Z,14.00
2024-05-09T03:05:40.160Z,13.30
2024-05-09T03:08:07.766Z,11.80
2024-05-09T03:10:36.920Z,14.03
2024-05-09T03:13:10.047Z,11.90
2024-05-09T03:15:37.219Z,10.70
2024-05-09T03:18:05.429Z,11.77
2024-05-09T03:20:35.162Z,12.07
2024-05-09T03:23:05.184Z,11.93
2024-05-09T03:25:32.539Z,12.37
2024-05-09T03:27:59.646Z,12.60
2024-05-09T03:30:38.488Z,13.17
2024-05-09T03:33:20.023Z,12.60
2024-05-09T03:35:49.042Z,13.13
2024-05-09T03:38:16.665Z,11.87
2024-05-09T03:40:48.599Z,11.10
2024-05-09T03:43:16.913Z,11.90
2024-05-09T03:45:44.376Z,12.80
2024-05-09T03:48:11.692Z,11.10
2024-05-09T03:50:39.012Z,13.73
2024-05-09T03:53:06.394Z,13.13
2024-05-09T03:55:33.492Z,13.33
2024-05-09T03:58:00.505Z,13.07
2024-05-09T04:00:35.516Z,11.43
2024-05-09T04:03:08.244Z,13.00
2024-05-09T04:05:39.500Z,12.73
2024-05-09T04:08:07.083Z,14.67
2024-05-09T04:10:35.116Z,11.83
2024-05-09T04:13:03.709Z,11.37
2024-05-09T04:15:31.193Z,13.20
2024-05-09T04:17:58.397Z,13.70
2024-05-09T04:20:35.962Z,11.77
2024-05-09T04:23:14.566Z,12.83
2024-05-09T04:25:43.429Z,11.90
2024-05-09T04:28:10.463Z,12.20
2024-05-09T04:30:40.293Z,13.20
2024-05-09T04:33:11.853Z,13.00
2024-05-09T04:35:42.297Z,13.33
2024-05-09T04:38:09.827Z,12.60
2024-05-09T04:40:37.687Z,13.97
2024-05-09T04:43:06.208Z,12.53
2024-05-09T04:45:33.526Z,12.60
2024-05-09T04:48:01.043Z,11.80
2024-05-09T04:50:35.985Z,12.17
2024-05-09T04:53:07.000Z,12.20
2024-05-09T04:55:35.273Z,11.73
2024-05-09T04:58:02.216Z,11.20
2024-05-09T05:00:35.826Z,12.33
2024-05-09T05:03:10.766Z,12.30
2024-05-09T05:05:40.881Z,13.93
2024-05-09T05:08:12.379Z,12.80
2024-05-09T05:10:39.587Z,12.50
2024-05-09T05:13:17.679Z,13.33
2024-05-09T05:15:49.331Z,11.50
2024-05-09T05:18:16.864Z,10.63
2024-05-09T05:20:44.454Z,14.20
2024-05-09T05:23:14.137Z,11.67
2024-05-09T05:25:45.021Z,12.17
2024-05-09T05:28:11.937Z,13.10
2024-05-09T05:30:40.656Z,12.47
2024-05-09T05:33:10.938Z,11.80
2024-05-09T05:35:38.029Z,11.77
2024-05-09T05:38:06.593Z,11.60
2024-05-09T05:40:37.102Z,12.00
2024-05-09T05:43:06.480Z,11.70
2024-05-09T05:45:33.377Z,12.23
2024-05-09T05:48:02.592Z,11.60
2024-05-09T05:50:35.533Z,12.20
2024-05-09T05:53:06.460Z,12.33
2024-05-09T05:55:33.642Z,13.20
2024-05-09T05:58:01.998Z,11.93
2024-05-09T06:00:35.014Z,12.27
2024-05-09T06:03:06.050Z,12.43
2024-05-09T06:05:33.582Z,11.33
2024-05-09T06:08:00.934Z,12.07
2024-05-09T06:10:37.242Z,13.13
2024-05-09T06:13:06.971Z,13.07
2024-05-09T06:15:34.096Z,19.77
2024-05-09T06:18:01.458Z,22.70
2024-05-09T06:20:35.550Z,23.03
2024-05-09T06:23:08.360Z,21.63
2024-05-09T06:25:36.881Z,25.60
2024-05-09T06:28:04.696Z,23.67
2024-05-09T06:30:40.295Z,25.60
2024-05-09T06:33:11.326Z,25.47
2024-05-09T06:35:40.531Z,26.80
2024-05-09T06:38:11.055Z,26.87
2024-05-09T06:40:41.887Z,25.73
2024-05-09T06:43:18.739Z,24.57
2024-05-09T06:45:48.458Z,27.60
2024-05-09T06:48:18.015Z,25.37
2024-05-09T06:50:45.384Z,26.20
2024-05-09T06:53:14.610Z,25.10
2024-05-09T06:55:41.791Z,26.07
2024-05-09T06:58:09.653Z,24.50
2024-05-09T07:00:39.888Z,24.20
2024-05-09T07:03:14.165Z,24.80
2024-05-09T07:05:43.699Z,23.90
2024-05-09T07:08:10.948Z,21.77
2024-05-09T07:10:38.304Z,23.70
2024-05-09T07:13:12.898Z,23.80
2024-05-09T07:15:40.865Z,21.40
2024-05-09T07:18:18.747Z,26.80
2024-05-09T07:20:48.752Z,22.53
2024-05-09T07:23:16.969Z,24.50
2024-05-09T07:25:44.082Z,23.53
2024-05-09T07:28:18.240Z,23.83
2024-05-09T07:30:45.519Z,27.37
2024-05-09T07:33:21.043Z,29.13
2024-05-09T07:35:49.591Z,22.33
2024-05-09T07:38:16.639Z,26.00
2024-05-09T07:40:43.645Z,24.17
2024-05-09T07:43:14.621Z,30.20
2024-05-09T07:45:50.798Z,24.33
2024-05-09T07:53:39.147Z,25.97
2024-05-09T07:56:09.997Z,28.30
2024-05-09T07:58:37.504Z,26.17
2024-05-09T08:01:05.096Z,25.50
2024-05-09T08:03:32.419Z,25.20
2024-05-09T08:05:59.502Z,29.80
2024-05-09T08:08:26.488Z,26.97
2024-05-09T08:10:53.462Z,23.93
2024-05-09T08:13:20.618Z,26.47
2024-05-09T08:15:47.665Z,26.33
2024-05-09T08:18:14.771Z,25.90
2024-05-09T08:20:42.306Z,20.03
2024-05-09T08:23:10.870Z,25.97
2024-05-09T08:25:38.752Z,24.67
2024-05-09T08:28:06.324Z,24.87
2024-05-09T08:30:37.086Z,25.03
2024-05-09T08:33:06.843Z,22.10
2024-05-09T08:35:35.141Z,23.07
2024-05-09T08:38:07.464Z,22.50
2024-05-09T08:40:36.792Z,21.30
2024-05-09T08:43:11.374Z,21.60
2024-05-09T08:45:43.566Z,22.30
2024-05-09T08:48:13.331Z,23.20
2024-05-09T08:50:41.448Z,21.97
2024-05-09T08:53:09.121Z,20.17
2024-05-09T08:55:40.421Z,20.90
2024-05-09T08:58:13.602Z,18.87
2024-05-09T09:00:43.397Z,17.00
2024-05-09T09:03:19.615Z,16.90
2024-05-09T09:06:19.911Z,16.27
2024-05-09T09:08:54.247Z,16.43
2024-05-09T09:11:21.166Z,13.77
2024-05-09T09:13:48.411Z,14.53
2024-05-09T09:16:16.379Z,12.63
2024-05-09T09:18:46.906Z,13.43
2024-05-09T09:21:13.957Z,15.70
2024-05-09T09:23:40.832Z,15.10
2024-05-09T09:26:07.714Z,14.77
2024-05-09T09:28:37.644Z,12.40
2024-05-09T09:31:05.286Z,14.97
2024-05-09T09:33:32.981Z,13.50
2024-05-09T09:36:04.237Z,13.63
2024-05-09T09:38:32.516Z,14.90
2024-05-09T09:41:01.518Z,15.53
2024-05-09T09:43:29.379Z,14.80
2024-05-09T09:45:59.947Z,14.00
2024-05-09T09:48:27.721Z,14.80
2024-05-09T09:50:55.375Z,13.77
2024-05-09T09:53:23.423Z,17.60
2024-05-09T09:55:52.120Z,15.47
2024-05-09T09:58:19.649Z,14.63
2024-05-09T10:00:47.173Z,15.50
2024-05-09T10:03:14.321Z,15.83
2024-05-09T10:05:45.034Z,13.73
2024-05-09T10:08:15.965Z,13.77
2024-05-09T10:10:47.137Z,13.33
2024-05-09T10:13:14.509Z,14.57
2024-05-09T10:15:51.736Z,13.13
2024-05-09T10:18:28.528Z,14.00
2024-05-09T10:20:57.950Z,12.70
2024-05-09T10:23:29.331Z,13.87
2024-05-09T10:26:04.657Z,11.70
2024-05-09T10:28:36.934Z,11.03
2024-05-09T10:31:08.849Z,11.80
2024-05-09T10:34:02.675Z,13.20
2024-05-09T10:36:29.823Z,14.97
2024-05-09T10:38:56.699Z,13.97
2024-05-09T10:41:24.225Z,10.87
2024-05-09T10:43:52.081Z,12.33
2024-05-09T10:46:19.525Z,12.93
2024-05-09T10:48:47.728Z,12.13
2024-05-09T10:51:15.183Z,10.93
2024-05-09T10:53:51.827Z,13.17
2024-05-09T10:56:18.784Z,11.50
2024-05-09T10:58:45.683Z,11.73
2024-05-09T11:01:13.472Z,12.50
2024-05-09T11:03:41.033Z,12.90
2024-05-09T11:06:09.798Z,11.20
2024-05-09T11:08:56.072Z,12.73
2024-05-09T11:11:23.137Z,9.60
2024-05-09T11:13:50.091Z,11.43
2024-05-09T11:16:21.801Z,9.70
2024-05-09T11:18:57.213Z,11.83
2024-05-09T11:21:25.069Z,12.53
2024-05-09T11:23:52.800Z,11.57
2024-05-09T11:26:21.497Z,12.00
2024-05-09T11:28:50.443Z,10.80
2024-05-09T11:31:17.882Z,10.57
2024-05-09T11:33:48.191Z,11.10
2024-05-09T11:36:15.698Z,11.43
2024-05-09T11:38:43.246Z,10.60
2024-05-09T11:41:17.257Z,12.43
2024-05-09T11:43:44.449Z,11.07
2024-05-09T11:46:11.632Z,10.30
2024-05-09T11:48:40.193Z,11.07
2024-05-09T11:51:07.313Z,11.47
2024-05-09T11:53:34.208Z,11.30
2024-05-09T11:56:01.147Z,10.93
2024-05-09T11:58:29.857Z,9.80
2024-05-09T12:00:57.251Z,11.50
2024-05-09T12:03:24.418Z,10.13
2024-05-09T12:05:51.628Z,10.30
2024-05-09T12:08:19.028Z,10.50
2024-05-09T12:10:46.613Z,12.03
2024-05-09T12:13:13.838Z,10.00
2024-05-09T12:15:40.892Z,9.93
2024-05-09T12:18:08.493Z,10.07
2024-05-09T12:20:38.638Z,10.23
2024-05-09T12:23:08.875Z,11.90
2024-05-09T12:25:37.831Z,11.00
2024-05-09T12:28:05.417Z,9.63
2024-05-09T12:30:37.547Z,9.30
2024-05-09T12:33:12.580Z,8.93
2024-05-09T12:35:41.755Z,11.20
2024-05-09T12:38:10.089Z,9.30
2024-05-09T12:40:38.807Z,8.10
2024-05-09T12:43:08.630Z,8.40
2024-05-09T12:45:36.981Z,8.70
2024-05-09T12:48:07.450Z,9.20
2024-05-09T12:50:35.198Z,10.37
2024-05-09T12:53:03.740Z,9.67
2024-05-09T12:55:40.168Z,9.60
2024-05-09T12:58:14.873Z,8.73
2024-05-09T13:00:41.931Z,9.43
2024-05-09T13:03:09.018Z,9.07
2024-05-09T13:05:36.081Z,9.57
2024-05-09T13:08:03.870Z,8.93
2024-05-09T13:10:32.876Z,9.50
2024-05-09T13:13:01.491Z,8.93
2024-05-09T13:15:30.155Z,7.93
2024-05-09T13:18:03.052Z,7.37
2024-05-09T13:20:34.100Z,6.80
2024-05-09T13:23:05.162Z,8.30
2024-05-09T13:25:34.438Z,8.23
2024-05-09T13:28:01.936Z,7.87
2024-05-09T13:30:37.726Z,8.00
2024-05-09T13:33:08.743Z,9.37
2024-05-09T13:35:36.299Z,8.30
2024-05-09T13:38:04.269Z,8.67
2024-05-09T13:40:34.683Z,8.03
2024-05-09T13:43:04.839Z,7.00
2024-05-09T13:45:32.657Z,6.70
2024-05-09T13:48:00.121Z,6.57
2024-05-09T13:50:33.365Z,5.97
2024-05-09T13:53:03.354Z,6.03
2024-05-09T13:55:30.383Z,7.70
2024-05-09T13:57:57.380Z,6.67
2024-05-09T14:02:54.425Z,6.90
2024-05-09T14:05:21.592Z,7.27
2024-05-09T14:07:48.845Z,9.00
2024-05-09T14:10:22.552Z,7.43
2024-05-09T14:12:53.014Z,8.60
2024-05-09T14:15:19.941Z,7.37
2024-05-09T14:17:47.029Z,6.73
2024-05-09T14:20:19.454Z,8.20
2024-05-09T14:22:54.722Z,9.03
2024-05-09T14:25:24.092Z,8.37
2024-05-09T14:27:51.169Z,9.00
2024-05-09T14:30:26.188Z,7.97
2024-05-09T14:33:01.286Z,7.90
2024-05-09T14:35:28.447Z,8.40
2024-05-09T14:37:55.428Z,6.97
2024-05-09T14:40:35.565Z,7.67
2024-05-09T14:43:07.812Z,8.73
2024-05-09T14:45:34.932Z,8.07
2024-05-09T14:48:02.858Z,8.40
2024-05-09T14:50:35.950Z,8.27
2024-05-09T14:53:06.925Z,8.20
2024-05-09T14:55:37.348Z,7.13
2024-05-09T14:58:09.338Z,8.40
2024-05-09T15:00:41.684Z,7.60
2024-05-09T15:03:11.983Z,6.70
2024-05-09T15:05:39.205Z,6.50
2024-05-09T15:08:07.934Z,8.57
2024-05-09T15:10:36.643Z,6.10
2024-05-09T15:13:04.933Z,8.63
2024-05-09T15:15:32.148Z,7.80
2024-05-09T15:17:59.839Z,8.27
2024-05-09T15:20:33.971Z,7.40
2024-05-09T15:23:04.552Z,8.03
2024-05-09T15:25:31.683Z,7.23
2024-05-09T15:27:58.736Z,7.93
2024-05-09T15:30:31.925Z,7.93
2024-05-09T15:33:03.262Z,9.07
2024-05-09T15:35:30.522Z,8.20
2024-05-09T15:37:57.571Z,6.47
2024-05-09T15:40:35.536Z,6.60
2024-05-09T15:43:07.654Z,7.37
2024-05-09T15:45:35.314Z,7.80
2024-05-09T15:48:03.443Z,7.67
2024-05-09T15:50:37.621Z,6.40
2024-05-09T15:53:09.129Z,6.60
2024-05-09T15:55:36.928Z,8.40
2024-05-09T15:58:04.941Z,7.10
2024-05-09T16:00:38.301Z,6.03
2024-05-09T16:03:09.970Z,7.53
2024-05-09T16:05:38.060Z,6.57
2024-05-09T16:08:06.498Z,8.30
2024-05-09T16:10:34.791Z,7.57
2024-05-09T16:13:03.209Z,7.37
2024-05-09T16:15:30.958Z,7.83
2024-05-09T16:17:58.147Z,7.13
2024-05-09T16:20:34.688Z,7.00
2024-05-09T16:23:06.970Z,7.80
2024-05-09T16:25:33.959Z,7.60
2024-05-09T16:28:01.601Z,8.73
2024-05-09T16:30:34.544Z,7.27
2024-05-09T16:33:04.589Z,5.63
2024-05-09T16:35:32.414Z,6.27
2024-05-09T16:38:01.565Z,6.90
2024-05-09T16:40:36.361Z,6.70
2024-05-09T16:43:07.301Z,6.10
2024-05-09T16:45:34.768Z,7.60
2024-05-09T16:48:02.361Z,7.07
2024-05-09T16:50:33.935Z,7.20
2024-05-09T16:53:06.743Z,6.17
2024-05-09T16:55:34.756Z,6.40
2024-05-09T16:58:02.862Z,6.70
2024-05-09T17:00:39.346Z,6.10
2024-05-09T17:03:11.433Z,5.40
2024-05-09T17:05:39.724Z,6.43
2024-05-09T17:08:08.047Z,5.73
2024-05-09T17:10:36.347Z,7.17
2024-05-09T17:13:05.280Z,5.53
2024-05-09T17:15:33.858Z,5.80
2024-05-09T17:18:01.982Z,6.60
2024-05-09T17:20:34.009Z,6.07
2024-05-09T17:23:04.429Z,6.60
2024-05-09T17:25:31.939Z,6.77
2024-05-09T17:28:06.119Z,5.73
2024-05-09T17:30:36.961Z,6.20
2024-05-09T17:33:07.523Z,5.90
2024-05-09T17:35:36.166Z,7.13
2024-05-09T17:38:03.975Z,6.77
2024-05-09T17:40:34.856Z,6.60
2024-05-09T17:43:05.140Z,5.27
2024-05-09T17:45:32.992Z,6.43
2024-05-09T17:48:00.804Z,7.63
2024-05-09T17:50:34.982Z,6.87
2024-05-09T17:53:04.725Z,6.70
2024-05-09T17:55:31.983Z,6.37
2024-05-09T17:57:59.225Z,8.30
2024-05-09T18:02:56.435Z,7.47
2024-05-09T18:05:23.840Z,7.90
2024-05-09T18:07:51.015Z,7.80
2024-05-09T18:10:25.417Z,7.93
2024-05-09T18:12:56.937Z,7.10
2024-05-09T18:15:23.859Z,7.90
2024-05-09T18:17:52.162Z,8.40
2024-05-09T18:20:28.704Z,8.00
2024-05-09T18:23:05.485Z,8.63
2024-05-09T18:25:32.395Z,7.33
2024-05-09T18:28:01.782Z,6.93
2024-05-09T18:30:34.408Z,7.67
2024-05-09T18:33:04.719Z,8.77
2024-05-09T18:35:33.122Z,8.30
2024-05-09T18:38:00.398Z,8.80
2024-05-09T18:40:32.995Z,8.80
2024-05-09T18:43:04.196Z,9.00
2024-05-09T18:45:31.439Z,8.17
2024-05-09T18:47:58.647Z,7.73
2024-05-09T18:50:32.620Z,8.10
2024-05-09T18:53:06.266Z,6.90
2024-05-09T18:55:33.454Z,8.00
2024-05-09T18:58:00.606Z,7.40
2024-05-09T19:00:34.461Z,7.70
2024-05-09T19:03:06.390Z,8.47
2024-05-09T19:05:36.046Z,8.43
2024-05-09T19:08:03.590Z,6.63
2024-05-09T19:10:34.445Z,8.40
2024-05-09T19:13:06.714Z,6.97
2024-05-09T19:15:38.559Z,7.43
2024-05-09T19:18:06.589Z,6.97
2024-05-09T19:20:35.584Z,6.90
2024-05-09T19:23:04.153Z,7.57
2024-05-09T19:25:31.265Z,5.93
2024-05-09T19:27:58.414Z,7.03
2024-05-09T19:30:34.642Z,6.10
2024-05-09T19:33:07.107Z,4.83
2024-05-09T19:35:34.175Z,7.10
2024-05-09T19:38:01.310Z,4.80
2024-05-09T19:40:31.838Z,5.33
2024-05-09T19:43:01.776Z,5.53
2024-05-09T19:45:29.383Z,5.97
2024-05-09T19:47:56.589Z,5.73
2024-05-09T19:50:32.211Z,6.10
2024-05-09T19:53:07.183Z,5.20
2024-05-09T19:55:34.603Z,6.00
2024-05-09T19:58:07.098Z,5.43
2024-05-09T20:00:37.644Z,5.53
2024-05-09T20:03:07.212Z,5.33
2024-05-09T20:05:34.495Z,6.60
2024-05-09T20:08:01.772Z,5.63
2024-05-09T20:10:32.666Z,5.43
2024-05-09T20:13:02.334Z,5.90
2024-05-09T20:15:29.824Z,5.93
2024-05-09T20:17:57.133Z,4.77
2024-05-09T20:20:33.014Z,5.80
2024-05-09T20:23:05.878Z,5.30
2024-05-09T20:25:32.822Z,6.37
2024-05-09T20:27:59.778Z,5.20
2024-05-09T20:30:32.041Z,4.73
2024-05-09T20:33:02.895Z,5.40
2024-05-09T20:35:34.696Z,5.03
2024-05-09T20:38:03.244Z,7.40
2024-05-09T20:40:34.789Z,7.13
2024-05-09T20:43:05.583Z,7.90
2024-05-09T20:45:33.159Z,4.70
2024-05-09T20:48:00.594Z,4.90
2024-05-09T20:50:36.408Z,5.33
2024-05-09T20:53:08.921Z,8.40
2024-05-09T20:55:36.011Z,5.63
2024-05-09T20:58:03.070Z,5.33
2024-05-09T21:00:38.704Z,8.33
2024-05-09T21:03:09.447Z,6.10
2024-05-09T21:05:36.713Z,4.73
2024-05-09T21:08:04.217Z,5.10
2024-05-09T21:10:33.372Z,6.70
2024-05-09T21:13:02.890Z,6.43
2024-05-09T21:15:30.812Z,7.30
2024-05-09T21:17:58.162Z,6.70
2024-05-09T21:20:30.980Z,8.10
2024-05-09T21:22:59.506Z,5.53
2024-05-09T21:25:26.513Z,8.27
2024-05-09T21:27:53.694Z,6.73
2024-05-09T21:32:51.268Z,6.80
2024-05-09T21:35:18.695Z,5.50
2024-05-09T21:37:45.656Z,6.70
2024-05-09T21:40:17.019Z,10.23
2024-05-09T21:42:52.123Z,6.43
2024-05-09T21:45:19.021Z,11.77
2024-05-09T21:47:45.980Z,9.63
2024-05-09T21:50:22.168Z,4.63
2024-05-09T21:52:50.545Z,5.37
2024-05-09T21:55:17.530Z,6.00
2024-05-09T21:57:44.489Z,4.97
2024-05-09T22:00:28.001Z,5.20
2024-05-09T22:03:02.270Z,5.07
2024-05-09T22:05:29.620Z,5.27
2024-05-09T22:07:57.142Z,6.10
2024-05-09T22:10:30.800Z,4.80
2024-05-09T22:13:01.781Z,5.60
2024-05-09T22:15:28.915Z,5.80
2024-05-09T22:17:57.540Z,5.77
2024-05-09T22:20:34.252Z,5.37
2024-05-09T22:23:05.189Z,5.60
2024-05-09T22:25:32.878Z,5.90
2024-05-09T22:28:01.721Z,4.90
2024-05-09T22:30:35.849Z,4.73
2024-05-09T22:33:10.995Z,4.90
2024-05-09T22:35:40.099Z,5.80
2024-05-09T22:38:07.183Z,6.10
2024-05-09T22:40:44.883Z,5.50
2024-05-09T22:43:23.958Z,5.87
2024-05-09T22:45:53.209Z,6.27
2024-05-09T22:48:20.685Z,6.53
2024-05-09T22:50:47.755Z,5.37
2024-05-09T22:53:14.843Z,5.93
2024-05-09T22:55:42.000Z,5.70
2024-05-09T22:58:09.019Z,5.40
2024-05-09T23:00:36.112Z,5.97
2024-05-09T23:03:03.633Z,5.60
2024-05-09T23:05:32.486Z,6.57
2024-05-09T23:08:01.323Z,5.60
2024-05-09T23:10:35.462Z,6.10
2024-05-09T23:13:05.257Z,6.60
2024-05-09T23:15:32.429Z,5.97
2024-05-09T23:17:59.606Z,6.77
2024-05-09T23:20:35.534Z,6.37
2024-05-09T23:23:06.426Z,6.47
2024-05-09T23:25:33.497Z,5.87
2024-05-09T23:28:00.576Z,6.80
2024-05-09T23:30:36.055Z,6.37
2024-05-09T23:33:06.562Z,6.63
2024-05-09T23:35:33.574Z,6.03
2024-05-09T23:38:00.527Z,6.50
2024-05-09T23:40:37.412Z,6.70
2024-05-09T23:43:07.874Z,6.50
2024-05-09T23:45:35.240Z,6.50
2024-05-09T23:48:02.890Z,6.23
2024-05-09T23:50:35.701Z,6.40
2024-05-09T23:53:06.546Z,5.80
2024-05-09T23:55:34.927Z,6.23
2024-05-09T23:58:02.039Z,6.13
